createdAt,value
2023-01-13T00:01:23.911Z,97034.38
2023-01-13T00:03:55.054Z,97039.66
2023-01-13T00:06:34.849Z,97031.47
2023-01-13T00:09:01.741Z,97027.47
2023-01-13T00:11:28.356Z,97022.81
2023-01-13T00:13:54.936Z,97024.56
2023-01-13T00:16:21.820Z,97025.00
2023-01-13T00:18:51.226Z,97019.81
2023-01-13T00:21:20.324Z,97008.44
2023-01-13T00:23:47.397Z,97034.38
2023-01-13T00:26:17.490Z,97021.72
2023-01-13T00:28:44.212Z,97019.44
2023-01-13T00:31:13.672Z,97009.09
2023-01-13T00:33:40.880Z,97014.84
2023-01-13T00:36:09.552Z,97009.72
2023-01-13T00:38:36.643Z,97005.72
2023-01-13T00:41:10.537Z,97013.66
2023-01-13T00:43:37.656Z,97005.06
2023-01-13T00:46:06.765Z,97008.72
2023-01-13T00:48:34.040Z,97005.06
2023-01-13T00:51:03.673Z,96993.72
2023-01-13T00:53:34.563Z,96996.88
2023-01-13T00:56:10.087Z,96989.97
2023-01-13T00:58:37.130Z,96990.78
2023-01-13T01:01:07.091Z,96988.31
2023-01-13T01:03:42.383Z,96988.88
2023-01-13T01:06:21.321Z,96938.09
2023-01-13T01:08:47.967Z,96948.66
2023-01-13T01:11:20.859Z,96969.22
2023-01-13T01:13:47.871Z,96977.78
2023-01-13T01:16:17.363Z,96956.94
2023-01-13T01:18:49.611Z,96966.22
2023-01-13T01:21:17.787Z,96982.84
2023-01-13T01:23:45.240Z,96942.28
2023-01-13T01:26:20.089Z,96975.75
2023-01-13T01:28:47.670Z,96963.59
2023-01-13T01:31:15.287Z,96951.84
2023-01-13T01:33:44.088Z,96957.28
2023-01-13T01:36:12.490Z,96950.38
2023-01-13T01:38:39.121Z,96955.66
2023-01-13T01:41:06.214Z,96944.63
2023-01-13T01:44:00.012Z,96960.38
2023-01-13T01:46:29.078Z,96928.34
2023-01-13T01:49:02.348Z,96930.63
2023-01-13T01:51:32.974Z,96933.53
2023-01-13T01:54:02.931Z,96945.09
2023-01-13T01:56:30.322Z,96940.53
2023-01-13T01:58:56.863Z,96945.81
2023-01-13T02:01:25.315Z,96946.63
2023-01-13T02:04:05.502Z,96925.59
2023-01-13T02:06:32.096Z,96934.50
2023-01-13T02:08:59.852Z,96932.69
2023-01-13T02:11:52.794Z,96943.88
2023-01-13T02:14:22.732Z,96917.53
2023-01-13T02:16:54.921Z,96945.06
2023-01-13T02:19:47.176Z,96923.13
2023-01-13T02:22:25.843Z,96925.16
2023-01-13T02:25:18.089Z,96911.13
2023-01-13T02:28:01.312Z,96907.28
2023-01-13T02:31:02.868Z,96888.03
2023-01-13T02:33:46.004Z,96902.38
2023-01-13T02:36:24.897Z,96892.56
2023-01-13T02:39:01.201Z,96888.47
2023-01-13T02:41:55.399Z,96854.19
2023-01-13T02:44:26.049Z,96858.09
2023-01-13T02:47:04.166Z,96857.91
2023-01-13T02:49:36.208Z,96842.34
2023-01-13T02:52:14.160Z,96821.63
2023-01-13T02:54:45.608Z,96828.75
2023-01-13T02:57:14.880Z,96812.88
2023-01-13T02:59:42.690Z,96796.31
2023-01-13T03:02:13.193Z,96791.09
2023-01-13T03:05:03.494Z,96791.75
2023-01-13T03:07:55.604Z,96787.34
2023-01-13T03:10:34.696Z,96806.09
2023-01-13T03:13:31.971Z,96802.97
2023-01-13T03:16:25.340Z,96769.00
2023-01-13T03:19:03.824Z,96806.47
2023-01-13T03:21:48.444Z,96802.50
2023-01-13T03:24:25.759Z,96841.81
2023-01-13T03:26:54.969Z,96848.47
2023-01-13T03:29:41.261Z,96841.94
2023-01-13T03:32:16.269Z,96839.94
2023-01-13T03:34:51.264Z,96835.00
2023-01-13T03:37:22.204Z,96840.66
2023-01-13T03:39:54.365Z,96820.47
2023-01-13T03:42:24.919Z,96830.47
2023-01-13T03:45:03.256Z,96827.47
2023-01-13T03:47:35.374Z,96821.59
2023-01-13T03:50:27.491Z,96828.16
2023-01-13T03:53:00.690Z,96834.28
2023-01-13T03:55:34.062Z,96822.16
2023-01-13T03:58:10.434Z,96819.31
2023-01-13T04:00:50.749Z,96829.97
2023-01-13T04:03:44.204Z,96827.44
2023-01-13T04:06:26.753Z,96831.06
2023-01-13T04:08:58.397Z,96840.44
2023-01-13T04:11:32.912Z,96825.78
2023-01-13T04:14:03.393Z,96813.81
2023-01-13T04:16:29.955Z,96833.50
2023-01-13T04:18:56.411Z,96816.91
2023-01-13T04:21:22.806Z,96837.72
2023-01-13T04:23:51.393Z,96844.47
2023-01-13T04:26:19.684Z,96838.78
2023-01-13T04:28:46.729Z,96835.16
2023-01-13T04:31:13.241Z,96852.44
2023-01-13T04:33:39.812Z,96850.63
2023-01-13T04:36:06.643Z,96844.06
2023-01-13T04:38:33.207Z,96813.38
2023-01-13T04:40:59.622Z,96866.53
2023-01-13T04:43:26.228Z,96873.81
2023-01-13T04:45:55.207Z,96864.06
2023-01-13T04:48:21.689Z,96863.47
2023-01-13T04:50:48.103Z,96855.16
2023-01-13T04:53:14.529Z,96873.91
2023-01-13T04:55:40.977Z,96860.88
2023-01-13T04:58:09.446Z,96865.31
2023-01-13T05:00:36.987Z,96878.00
2023-01-13T05:03:04.022Z,96877.53
2023-01-13T05:05:30.853Z,96871.13
2023-01-13T05:07:58.282Z,96863.53
2023-01-13T05:10:25.728Z,96914.59
2023-01-13T05:13:11.594Z,96907.22
2023-01-13T05:15:59.169Z,96905.44
2023-01-13T05:18:26.269Z,96917.09
2023-01-13T05:20:52.680Z,96922.25
2023-01-13T05:23:39.060Z,96902.97
2023-01-13T05:26:05.668Z,96913.16
2023-01-13T05:28:33.917Z,96895.75
2023-01-13T05:31:01.674Z,96904.31
2023-01-13T05:33:28.406Z,96890.28
2023-01-13T05:35:54.875Z,96895.78
2023-01-13T05:38:21.296Z,96870.81
2023-01-13T05:41:06.065Z,96882.06
2023-01-13T05:43:34.950Z,96859.75
2023-01-13T05:46:08.043Z,96860.38
2023-01-13T05:48:40.161Z,96848.16
2023-01-13T05:51:09.267Z,96845.97
2023-01-13T05:53:36.915Z,96840.31
2023-01-13T05:56:05.238Z,96865.56
2023-01-13T05:58:31.884Z,96871.34
2023-01-13T06:01:04.573Z,96930.75
2023-01-13T06:03:31.253Z,96953.19
2023-01-13T06:06:01.422Z,96966.53
2023-01-13T06:08:28.223Z,96970.00
2023-01-13T06:10:56.084Z,96985.47
2023-01-13T06:13:22.992Z,96970.31
2023-01-13T06:15:49.411Z,97020.31
2023-01-13T06:18:15.851Z,97041.41
2023-01-13T06:20:42.221Z,97072.34
2023-01-13T06:23:11.909Z,97081.56
2023-01-13T06:25:43.216Z,97081.25
2023-01-13T06:28:10.822Z,97080.94
2023-01-13T06:30:49.794Z,97075.34
2023-01-13T06:33:22.321Z,97064.34
2023-01-13T06:35:58.361Z,97025.72
2023-01-13T06:38:29.003Z,97042.16
2023-01-13T06:40:55.498Z,97017.53
2023-01-13T06:43:22.059Z,97025.72
2023-01-13T06:45:52.411Z,97033.94
2023-01-13T06:48:21.732Z,97039.38
2023-01-13T06:50:48.092Z,97035.91
2023-01-13T06:53:14.502Z,97023.09
2023-01-13T06:55:41.259Z,97002.75
2023-01-13T06:58:07.716Z,96950.66
2023-01-13T07:00:37.442Z,96924.88
2023-01-13T07:03:21.855Z,96878.91
2023-01-13T07:05:53.547Z,96906.47
2023-01-13T07:08:20.822Z,96939.69
2023-01-13T07:10:47.255Z,96916.84
2023-01-13T07:13:32.366Z,96947.06
2023-01-13T07:16:01.581Z,96941.50
2023-01-13T07:18:31.541Z,96961.38
2023-01-13T07:21:04.044Z,97004.06
2023-01-13T07:23:32.981Z,96974.81
2023-01-13T07:26:00.346Z,96975.47
2023-01-13T07:28:28.506Z,96982.88
2023-01-13T07:30:55.044Z,96950.03
2023-01-13T07:33:21.871Z,96929.66
2023-01-13T07:35:49.141Z,96931.50
2023-01-13T07:38:16.353Z,96933.44
2023-01-13T07:40:47.927Z,96905.25
2023-01-13T07:43:32.665Z,96922.94
2023-01-13T07:46:04.843Z,96942.81
2023-01-13T07:48:33.500Z,96932.66
2023-01-13T07:51:08.700Z,96966.94
2023-01-13T07:53:35.309Z,97005.06
2023-01-13T07:56:03.482Z,96985.00
2023-01-13T07:58:30.008Z,97002.41
2023-01-13T08:00:56.938Z,97028.84
2023-01-13T08:03:23.937Z,97043.31
2023-01-13T08:05:51.083Z,97050.38
2023-01-13T08:08:18.284Z,97068.41
2023-01-13T08:10:45.033Z,97039.50
2023-01-13T08:13:18.188Z,97055.09
2023-01-13T08:15:47.038Z,97036.72
2023-01-13T08:18:13.959Z,97037.84
2023-01-13T08:20:40.793Z,97031.13
2023-01-13T08:23:07.627Z,97044.59
2023-01-13T08:25:34.362Z,97051.00
2023-01-13T08:28:00.840Z,97054.59
2023-01-13T08:30:28.329Z,97039.19
2023-01-13T08:32:55.004Z,97063.13
2023-01-13T08:35:22.352Z,97084.81
2023-01-13T08:37:50.148Z,97092.69
2023-01-13T08:40:18.040Z,97094.00
2023-01-13T08:42:45.915Z,97090.13
2023-01-13T08:45:14.232Z,97094.41
2023-01-13T08:47:40.757Z,97079.38
2023-01-13T08:50:08.050Z,97109.75
2023-01-13T08:52:34.650Z,97097.09
2023-01-13T08:55:01.179Z,97112.16
2023-01-13T08:57:27.728Z,97134.97
2023-01-13T08:59:54.320Z,97136.75
2023-01-13T09:02:26.184Z,97153.38
2023-01-13T09:04:53.232Z,97156.19
2023-01-13T09:07:20.353Z,97149.38
2023-01-13T09:09:46.849Z,97152.81
2023-01-13T09:12:33.689Z,97154.22
2023-01-13T09:15:00.981Z,97152.16
2023-01-13T09:17:27.983Z,97164.41
2023-01-13T09:19:54.709Z,97180.41
2023-01-13T09:22:21.837Z,97201.84
2023-01-13T09:24:48.269Z,97210.88
2023-01-13T09:27:15.561Z,97219.72
2023-01-13T09:29:42.351Z,97231.91
2023-01-13T09:32:12.684Z,97226.03
2023-01-13T09:35:06.479Z,97215.41
2023-01-13T09:37:36.811Z,97231.81
2023-01-13T09:40:07.669Z,97255.22
2023-01-13T09:43:00.776Z,97253.81
2023-01-13T09:45:42.644Z,97249.88
2023-01-13T09:48:30.057Z,97254.38
2023-01-13T09:51:20.913Z,97258.13
2023-01-13T09:53:55.897Z,97264.69
2023-01-13T09:56:25.901Z,97250.88
2023-01-13T09:58:52.475Z,97269.47
2023-01-13T10:01:37.860Z,97260.56
2023-01-13T10:04:12.061Z,97268.25
2023-01-13T10:06:44.158Z,97268.19
2023-01-13T10:09:35.961Z,97268.63
2023-01-13T10:12:21.725Z,97283.44
2023-01-13T10:14:54.320Z,97270.16
2023-01-13T10:17:52.096Z,97265.31
2023-01-13T10:20:29.828Z,97264.03
2023-01-13T10:23:10.246Z,97258.13
2023-01-13T10:25:55.397Z,97265.72
2023-01-13T10:28:23.951Z,97243.84
2023-01-13T10:30:50.806Z,97269.50
2023-01-13T10:33:21.333Z,97271.13
2023-01-13T10:36:02.407Z,97254.81
2023-01-13T10:38:46.845Z,97253.19
2023-01-13T10:41:16.330Z,97291.34
2023-01-13T10:43:44.295Z,97264.34
2023-01-13T10:46:15.978Z,97304.53
2023-01-13T10:48:51.729Z,97267.53
2023-01-13T10:51:22.096Z,97273.34
2023-01-13T10:53:51.696Z,97288.34
2023-01-13T10:56:21.120Z,97299.13
2023-01-13T10:58:47.617Z,97296.50
2023-01-13T11:01:21.831Z,97280.69
2023-01-13T11:03:48.405Z,97300.78
2023-01-13T11:06:29.798Z,97311.28
2023-01-13T11:09:03.110Z,97322.66
2023-01-13T11:11:35.187Z,97323.69
2023-01-13T11:14:23.686Z,97307.53
2023-01-13T11:16:55.637Z,97328.59
2023-01-13T11:19:27.664Z,97344.88
2023-01-13T11:22:17.714Z,97339.78
2023-01-13T11:24:51.198Z,97338.13
2023-01-13T11:27:35.939Z,97333.38
2023-01-13T11:30:27.475Z,97351.63
2023-01-13T11:33:04.742Z,97342.75
2023-01-13T11:35:34.906Z,97341.28
2023-01-13T11:38:11.094Z,97347.25
2023-01-13T11:40:42.822Z,97342.97
2023-01-13T11:43:32.699Z,97347.88
2023-01-13T11:46:00.954Z,97344.91
2023-01-13T11:48:31.070Z,97333.97
2023-01-13T11:51:07.954Z,97333.34
2023-01-13T11:53:46.116Z,97334.22
2023-01-13T11:56:54.790Z,97344.38
2023-01-13T11:59:58.559Z,97333.09
2023-01-13T12:02:58.032Z,97341.91
2023-01-13T12:05:42.640Z,97325.56
2023-01-13T12:08:43.266Z,97346.28
2023-01-13T12:11:18.836Z,97374.22
2023-01-13T12:13:52.254Z,97385.41
2023-01-13T12:16:32.444Z,97381.47
2023-01-13T12:19:29.652Z,97400.88
2023-01-13T12:22:11.447Z,97416.88
2023-01-13T12:25:02.428Z,97415.69
2023-01-13T12:27:41.371Z,97420.03
2023-01-13T12:30:23.060Z,97411.19
2023-01-13T12:32:51.345Z,97420.91
2023-01-13T12:35:37.942Z,97381.22
2023-01-13T12:38:07.135Z,97433.25
2023-01-13T12:40:39.443Z,97430.13
2023-01-13T12:43:33.592Z,97429.25
2023-01-13T12:46:18.706Z,97423.53
2023-01-13T12:48:53.062Z,97425.50
2023-01-13T12:51:29.815Z,97431.28
2023-01-13T12:53:56.620Z,97420.41
2023-01-13T12:56:30.769Z,97416.78
2023-01-13T12:59:19.430Z,97414.63
2023-01-13T13:01:48.647Z,97418.44
2023-01-13T13:04:37.972Z,97435.41
2023-01-13T13:07:10.267Z,97433.63
2023-01-13T13:09:43.927Z,97413.50
2023-01-13T13:12:51.000Z,97425.06
2023-01-13T13:15:26.791Z,97427.72
2023-01-13T13:17:59.669Z,97428.84
2023-01-13T13:21:04.020Z,97447.31
2023-01-13T13:23:38.149Z,97450.75
2023-01-13T13:26:15.731Z,97439.22
2023-01-13T13:28:47.527Z,97427.34
2023-01-13T13:31:32.546Z,97382.25
2023-01-13T13:34:05.089Z,97425.53
2023-01-13T13:36:43.671Z,97441.34
2023-01-13T13:39:40.277Z,97431.53
2023-01-13T13:42:46.931Z,97412.06
2023-01-13T13:45:40.080Z,97432.25
2023-01-13T13:48:27.220Z,97447.25
2023-01-13T13:51:03.680Z,97440.56
2023-01-13T13:53:34.236Z,97440.56
2023-01-13T13:56:03.360Z,97443.91
2023-01-13T13:58:34.051Z,97432.13
2023-01-13T14:01:00.888Z,97436.72
2023-01-13T14:03:34.179Z,97418.94
2023-01-13T14:06:04.116Z,97451.22
2023-01-13T14:08:34.116Z,97456.13
2023-01-13T14:11:00.498Z,97453.56
2023-01-13T14:13:31.506Z,97442.13
2023-01-13T14:16:03.982Z,97450.41
2023-01-13T14:18:42.364Z,97447.47
2023-01-13T14:21:27.538Z,97478.47
2023-01-13T14:24:01.269Z,97477.19
2023-01-13T14:26:28.987Z,97478.16
2023-01-13T14:28:57.623Z,97469.75
2023-01-13T14:31:24.716Z,97455.78
2023-01-13T14:33:57.519Z,97479.50
2023-01-13T14:36:49.516Z,97509.44
2023-01-13T14:39:16.779Z,97520.31
2023-01-13T14:41:43.091Z,97519.00
2023-01-13T14:44:26.996Z,97529.22
2023-01-13T14:46:56.879Z,97536.41
2023-01-13T14:49:39.302Z,97535.41
2023-01-13T14:52:20.968Z,97551.38
2023-01-13T14:55:14.850Z,97549.53
2023-01-13T14:57:41.736Z,97578.13
2023-01-13T15:00:13.980Z,97578.47
2023-01-13T15:02:43.333Z,97601.78
2023-01-13T15:05:19.067Z,97610.69
2023-01-13T15:07:50.730Z,97624.16
2023-01-13T15:10:19.592Z,97626.50
2023-01-13T15:12:49.311Z,97639.97
2023-01-13T15:15:24.855Z,97671.88
2023-01-13T15:17:52.987Z,97696.41
2023-01-13T15:20:22.433Z,97730.97
2023-01-13T15:22:50.099Z,97691.41
2023-01-13T15:25:16.780Z,97665.53
2023-01-13T15:27:44.995Z,97620.25
2023-01-13T15:30:27.654Z,97606.69
2023-01-13T15:32:56.086Z,97592.97
2023-01-13T15:35:25.149Z,97576.81
2023-01-13T15:37:52.277Z,97562.72
2023-01-13T15:40:21.640Z,97563.84
2023-01-13T15:43:07.531Z,97545.28
2023-01-13T15:45:55.392Z,97536.25
2023-01-13T15:48:24.517Z,97528.06
2023-01-13T15:50:51.015Z,97532.84
2023-01-13T15:53:17.929Z,97523.84
2023-01-13T15:55:47.162Z,97522.66
2023-01-13T15:58:14.824Z,97520.75
2023-01-13T16:00:42.307Z,97496.16
2023-01-13T16:03:18.394Z,97510.19
2023-01-13T16:05:45.559Z,97520.41
2023-01-13T16:08:20.652Z,97518.06
2023-01-13T16:10:48.036Z,97509.88
2023-01-13T16:13:15.887Z,97535.03
2023-01-13T16:15:51.167Z,97519.88
2023-01-13T16:18:24.288Z,97524.91
2023-01-13T16:20:53.386Z,97533.28
2023-01-13T16:23:22.385Z,97541.16
2023-01-13T16:25:49.577Z,97544.78
2023-01-13T16:28:28.150Z,97529.25
2023-01-13T16:30:54.859Z,97534.50
2023-01-13T16:33:21.961Z,97466.84
2023-01-13T16:36:10.318Z,97509.44
2023-01-13T16:38:34.810Z,97493.53
2023-01-13T16:41:01.370Z,97474.22
2023-01-13T16:43:28.044Z,97459.47
2023-01-13T16:45:54.500Z,97452.19
2023-01-13T16:48:22.955Z,97424.63
2023-01-13T16:50:49.442Z,97421.69
2023-01-13T16:53:15.902Z,97422.88
2023-01-13T16:55:42.832Z,97425.38
2023-01-13T16:58:20.382Z,97448.56
2023-01-13T17:00:47.685Z,97460.19
2023-01-13T17:03:15.926Z,97446.34
2023-01-13T17:05:44.679Z,97467.72
2023-01-13T17:08:18.688Z,97454.16
2023-01-13T17:10:45.942Z,97463.16
2023-01-13T17:13:16.450Z,97475.16
2023-01-13T17:15:44.610Z,97467.28
2023-01-13T17:18:13.446Z,97487.00
2023-01-13T17:20:40.112Z,97496.00
2023-01-13T17:23:06.497Z,97481.66
2023-01-13T17:25:32.905Z,97493.75
2023-01-13T17:27:59.303Z,97495.72
2023-01-13T17:30:25.714Z,97503.78
2023-01-13T17:32:52.094Z,97513.34
2023-01-13T17:35:22.891Z,97493.53
2023-01-13T17:37:49.267Z,97507.34
2023-01-13T17:40:15.924Z,97515.00
2023-01-13T17:42:42.304Z,97519.44
2023-01-13T17:45:11.450Z,97527.00
2023-01-13T17:47:38.312Z,97504.50
2023-01-13T17:50:05.763Z,97537.13
2023-01-13T17:52:33.995Z,97538.03
2023-01-13T17:55:00.772Z,97551.31
2023-01-13T17:57:27.535Z,97556.56
2023-01-13T17:59:53.962Z,97573.69
2023-01-13T18:02:20.491Z,97564.16
2023-01-13T18:04:46.967Z,97570.06
2023-01-13T18:07:13.582Z,97577.00
2023-01-13T18:09:40.031Z,97570.00
2023-01-13T18:12:06.465Z,97581.59
2023-01-13T18:14:32.877Z,97594.44
2023-01-13T18:16:59.529Z,97584.22
2023-01-13T18:19:44.483Z,97596.06
2023-01-13T18:22:32.376Z,97593.00
2023-01-13T18:25:17.899Z,97613.34
2023-01-13T18:27:44.398Z,97615.38
2023-01-13T18:30:11.980Z,97628.06
2023-01-13T18:32:38.360Z,97634.81
2023-01-13T18:35:10.085Z,97637.22
2023-01-13T18:37:42.225Z,97648.41
2023-01-13T18:40:10.988Z,97634.22
2023-01-13T18:42:57.170Z,97636.50
2023-01-13T18:45:30.243Z,97628.34
2023-01-13T18:47:59.644Z,97631.28
2023-01-13T18:50:28.344Z,97628.22
2023-01-13T18:52:55.034Z,97628.53
2023-01-13T18:55:22.147Z,97647.13
2023-01-13T18:57:48.936Z,97644.66
2023-01-13T19:00:17.968Z,97649.25
2023-01-13T19:02:47.116Z,97648.25
2023-01-13T19:05:14.026Z,97657.81
2023-01-13T19:07:40.542Z,97660.44
2023-01-13T19:10:09.736Z,97667.66
2023-01-13T19:12:36.526Z,97680.09
2023-01-13T19:15:03.202Z,97656.34
2023-01-13T19:17:34.329Z,97664.41
2023-01-13T19:20:00.810Z,97673.72
2023-01-13T19:22:30.986Z,97679.06
2023-01-13T19:24:58.180Z,97703.16
2023-01-13T19:27:25.277Z,97691.97
2023-01-13T19:29:53.886Z,97669.50
2023-01-13T19:32:21.894Z,97697.91
2023-01-13T19:34:50.671Z,97712.56
2023-01-13T19:37:18.010Z,97712.00
2023-01-13T19:39:44.895Z,97697.81
2023-01-13T19:42:32.302Z,97720.50
2023-01-13T19:45:17.940Z,97729.94
2023-01-13T19:47:45.915Z,97738.19
2023-01-13T19:50:13.652Z,97735.19
2023-01-13T19:52:41.059Z,97740.31
2023-01-13T19:55:07.866Z,97747.06
2023-01-13T19:57:34.345Z,97750.56
2023-01-13T20:00:00.747Z,97716.69
2023-01-13T20:02:31.587Z,97755.03
2023-01-13T20:05:00.051Z,97769.13
2023-01-13T20:07:29.588Z,97771.09
2023-01-13T20:09:56.520Z,97772.50
2023-01-13T20:12:27.429Z,97772.78
2023-01-13T20:14:53.896Z,97779.28
2023-01-13T20:17:22.231Z,97772.25
2023-01-13T20:19:48.745Z,97764.53
2023-01-13T20:22:15.282Z,97794.34
2023-01-13T20:24:41.664Z,97795.22
2023-01-13T20:27:08.224Z,97795.91
2023-01-13T20:29:34.693Z,97802.22
2023-01-13T20:32:01.369Z,97822.28
2023-01-13T20:34:29.494Z,97808.84
2023-01-13T20:36:56.948Z,97822.78
2023-01-13T20:39:26.277Z,97801.78
2023-01-13T20:42:11.981Z,97827.47
2023-01-13T20:44:38.384Z,97835.25
2023-01-13T20:47:05.124Z,97842.69
2023-01-13T20:49:31.766Z,97844.66
2023-01-13T20:51:58.448Z,97854.88
2023-01-13T20:54:25.109Z,97831.16
2023-01-13T20:56:51.833Z,97864.03
2023-01-13T20:59:18.435Z,97850.31
2023-01-13T21:01:44.994Z,97872.31
2023-01-13T21:04:11.561Z,97864.19
2023-01-13T21:06:38.117Z,97863.34
2023-01-13T21:09:04.670Z,97870.28
2023-01-13T21:11:49.702Z,97872.50
2023-01-13T21:14:43.830Z,97864.50
2023-01-13T21:17:30.633Z,97873.47
2023-01-13T21:19:57.073Z,97851.91
2023-01-13T21:22:23.795Z,97884.97
2023-01-13T21:24:50.310Z,97853.72
2023-01-13T21:27:17.078Z,97877.63
2023-01-13T21:29:46.381Z,97864.94
2023-01-13T21:32:13.098Z,97860.38
2023-01-13T21:34:40.125Z,97878.59
2023-01-13T21:37:06.616Z,97887.56
2023-01-13T21:39:33.085Z,97880.91
2023-01-13T21:42:18.290Z,97875.94
2023-01-13T21:45:03.223Z,97871.66
2023-01-13T21:47:48.153Z,97873.44
2023-01-13T21:50:16.158Z,97882.56
2023-01-13T21:52:42.867Z,97845.41
2023-01-13T21:55:28.404Z,97880.34
2023-01-13T21:57:57.524Z,97887.97
2023-01-13T22:00:27.616Z,97893.88
2023-01-13T22:02:54.361Z,97900.22
2023-01-13T22:05:22.720Z,97904.53
2023-01-13T22:07:50.074Z,97912.13
2023-01-13T22:10:19.456Z,97857.13
2023-01-13T22:12:47.052Z,97903.56
2023-01-13T22:15:15.358Z,97917.50
2023-01-13T22:17:42.637Z,97913.78
2023-01-13T22:20:10.838Z,97921.53
2023-01-13T22:22:37.345Z,97918.50
2023-01-13T22:25:07.623Z,97913.53
2023-01-13T22:27:40.771Z,97932.34
2023-01-13T22:30:13.651Z,97925.69
2023-01-13T22:32:40.597Z,97917.69
2023-01-13T22:35:10.004Z,97927.88
2023-01-13T22:37:36.997Z,97933.03
2023-01-13T22:40:08.312Z,97942.13
2023-01-13T22:42:42.090Z,97947.53
2023-01-13T22:45:13.722Z,97938.13
2023-01-13T22:47:40.710Z,97950.00
2023-01-13T22:50:08.575Z,97942.00
2023-01-13T22:52:35.795Z,97959.84
2023-01-13T22:55:02.368Z,97937.75
2023-01-13T22:57:46.491Z,97947.25
2023-01-13T23:00:14.832Z,97954.59
2023-01-13T23:02:41.273Z,97949.75
2023-01-13T23:05:08.475Z,97956.00
2023-01-13T23:07:36.140Z,97970.63
2023-01-13T23:10:03.510Z,97952.78
2023-01-13T23:12:29.942Z,97956.53
2023-01-13T23:14:56.412Z,97965.94
2023-01-13T23:17:22.856Z,97961.66
2023-01-13T23:19:49.264Z,97976.88
2023-01-13T23:22:15.752Z,97975.75
2023-01-13T23:24:42.273Z,97956.25
2023-01-13T23:27:08.655Z,97971.03
2023-01-13T23:29:35.062Z,97978.78
2023-01-13T23:32:01.590Z,97963.88
2023-01-13T23:34:28.047Z,97977.66
2023-01-13T23:36:54.455Z,97967.59
2023-01-13T23:39:20.858Z,97964.41
2023-01-13T23:41:47.269Z,97976.28
2023-01-13T23:44:13.867Z,97986.00
2023-01-13T23:46:40.247Z,97991.63
2023-01-13T23:49:06.808Z,97983.75
2023-01-13T23:51:33.457Z,97995.66
2023-01-13T23:54:00.380Z,97966.91
2023-01-13T23:56:29.450Z,97988.19
2023-01-13T23:58:56.716Z,97995.66
